createdAt,value
2019-03-19T00:03:06.945Z,94.50
2019-03-19T00:07:23.716Z,94.90
2019-03-19T00:11:40.488Z,95.40
2019-03-19T00:15:57.573Z,95.30
2019-03-19T00:20:15.163Z,95.50
2019-03-19T00:24:31.690Z,95.50
2019-03-19T00:28:48.218Z,95.60
2019-03-19T00:33:04.776Z,95.80
2019-03-19T00:37:21.535Z,96.10
2019-03-19T00:41:38.095Z,96.00
2019-03-19T00:45:54.600Z,96.00
2019-03-19T00:50:13.010Z,96.00
2019-03-19T00:54:29.881Z,96.00
2019-03-19T00:58:46.364Z,96.10
2019-03-19T01:03:03.625Z,96.00
2019-03-19T01:07:20.138Z,96.00
2019-03-19T01:11:37.148Z,96.00
2019-03-19T01:15:53.873Z,96.00
2019-03-19T01:20:14.685Z,96.20
2019-03-19T01:24:31.615Z,96.40
2019-03-19T01:28:48.142Z,96.50
2019-03-19T01:33:04.984Z,96.30
2019-03-19T01:37:21.592Z,96.20
2019-03-19T01:41:38.121Z,96.30
2019-03-19T01:45:54.640Z,96.30
2019-03-19T01:50:12.961Z,96.40
2019-03-19T01:54:29.529Z,96.40
2019-03-19T01:58:46.019Z,96.50
2019-03-19T02:03:02.849Z,96.60
2019-03-19T02:07:19.455Z,96.60
2019-03-19T02:11:38.328Z,96.70
2019-03-19T02:15:54.422Z,96.70
2019-03-19T02:20:16.562Z,96.80
2019-03-19T02:24:33.102Z,96.80
2019-03-19T02:28:49.716Z,96.80
2019-03-19T02:33:06.327Z,96.80
2019-03-19T02:37:22.929Z,96.70
2019-03-19T02:41:39.475Z,96.70
2019-03-19T02:45:56.134Z,96.70
2019-03-19T02:50:17.495Z,96.70
2019-03-19T02:54:34.065Z,97.00
2019-03-19T02:58:50.565Z,96.90
2019-03-19T03:03:07.178Z,97.00
2019-03-19T03:07:23.956Z,97.30
2019-03-19T03:11:40.511Z,97.80
2019-03-19T03:15:57.025Z,98.00
2019-03-19T03:20:15.265Z,98.00
2019-03-19T03:24:31.951Z,97.90
2019-03-19T03:28:48.938Z,97.70
2019-03-19T03:33:05.428Z,97.20
2019-03-19T03:37:21.966Z,97.00
2019-03-19T03:41:39.575Z,97.10
2019-03-19T03:45:56.245Z,97.00
2019-03-19T03:50:14.570Z,97.00
2019-03-19T03:54:31.184Z,96.80
2019-03-19T03:59:00.054Z,96.50
2019-03-19T04:03:06.830Z,96.30
2019-03-19T04:07:23.446Z,96.60
2019-03-19T04:11:40.314Z,96.70
2019-03-19T04:15:57.220Z,97.20
2019-03-19T04:20:15.834Z,97.30
2019-03-19T04:24:32.839Z,97.10
2019-03-19T04:28:51.142Z,96.70
2019-03-19T04:33:07.983Z,96.70
2019-03-19T04:37:24.533Z,96.80
2019-03-19T04:41:41.056Z,96.80
2019-03-19T04:45:57.576Z,96.70
2019-03-19T04:50:15.512Z,96.60
2019-03-19T04:54:32.053Z,96.60
2019-03-19T04:58:48.588Z,96.30
2019-03-19T05:03:07.751Z,96.30
2019-03-19T05:07:24.267Z,96.20
2019-03-19T05:11:40.776Z,96.10
2019-03-19T05:15:58.317Z,95.70
2019-03-19T05:20:17.964Z,95.30
2019-03-19T05:24:34.510Z,95.20
2019-03-19T05:28:51.340Z,95.20
2019-03-19T05:33:08.114Z,95.30
2019-03-19T05:37:24.668Z,95.60
2019-03-19T05:41:41.198Z,95.80
2019-03-19T05:45:58.043Z,96.00
2019-03-19T05:50:20.393Z,96.20
2019-03-19T05:54:36.880Z,96.20
2019-03-19T05:58:53.410Z,96.00
2019-03-19T06:03:09.898Z,96.00
2019-03-19T06:07:26.423Z,96.10
2019-03-19T06:11:42.949Z,96.10
2019-03-19T06:15:59.518Z,96.10
2019-03-19T06:20:19.880Z,96.10
2019-03-19T06:24:36.390Z,96.10
2019-03-19T06:28:53.005Z,96.30
2019-03-19T06:33:09.507Z,96.30
2019-03-19T06:37:26.041Z,96.50
2019-03-19T06:41:42.557Z,96.50
2019-03-19T06:45:59.027Z,96.60
2019-03-19T06:50:19.941Z,96.20
2019-03-19T06:54:36.495Z,95.00
2019-03-19T06:58:53.008Z,93.20
2019-03-19T07:03:09.497Z,92.50
2019-03-19T07:07:26.048Z,92.40
2019-03-19T07:11:42.858Z,92.90
2019-03-19T07:15:59.369Z,92.10
2019-03-19T07:20:27.027Z,91.70
2019-03-19T07:24:43.574Z,91.40
2019-03-19T07:29:00.064Z,90.80
2019-03-19T07:33:16.804Z,90.30
2019-03-19T07:37:33.611Z,89.80
2019-03-19T07:41:50.138Z,86.00
2019-03-19T07:46:06.684Z,84.80
2019-03-19T07:50:23.380Z,80.60
2019-03-19T07:54:40.142Z,79.80
2019-03-19T07:58:56.613Z,77.70
2019-03-19T08:03:16.328Z,77.20
2019-03-19T08:07:31.480Z,76.30
2019-03-19T08:11:48.005Z,78.80
2019-03-19T08:16:04.546Z,72.80
2019-03-19T08:20:21.447Z,74.50
2019-03-19T08:24:38.206Z,70.80
2019-03-19T08:28:55.529Z,71.80
2019-03-19T08:33:12.240Z,73.10
2019-03-19T08:37:28.872Z,75.30
2019-03-19T08:41:45.377Z,75.50
2019-03-19T08:46:02.000Z,72.00
2019-03-19T08:50:21.337Z,72.00
2019-03-19T08:54:37.933Z,70.60
2019-03-19T08:58:54.393Z,69.40
2019-03-19T09:03:10.918Z,70.60
2019-03-19T09:07:27.733Z,67.60
2019-03-19T09:11:44.169Z,66.00
2019-03-19T09:16:00.674Z,65.80
2019-03-19T09:20:17.587Z,66.30
2019-03-19T09:24:34.107Z,67.50
2019-03-19T09:28:50.616Z,70.00
2019-03-19T09:33:07.156Z,70.30
2019-03-19T09:37:23.657Z,66.90
2019-03-19T09:41:40.185Z,65.60
2019-03-19T09:45:57.211Z,62.00
2019-03-19T09:50:20.774Z,58.30
2019-03-19T09:54:37.711Z,53.60
2019-03-19T09:58:54.315Z,57.90
2019-03-19T10:03:10.971Z,58.60
2019-03-19T10:07:27.457Z,56.80
2019-03-19T10:11:43.907Z,56.80
2019-03-19T10:16:00.625Z,57.00
2019-03-19T10:20:22.063Z,55.40
2019-03-19T10:24:38.910Z,56.70
2019-03-19T10:28:55.457Z,54.70
2019-03-19T10:33:12.000Z,51.00
2019-03-19T10:37:28.466Z,49.50
2019-03-19T10:41:45.327Z,49.50
2019-03-19T10:46:01.856Z,48.20
2019-03-19T10:50:21.675Z,44.80
2019-03-19T10:54:38.154Z,46.70
2019-03-19T10:58:54.687Z,47.90
2019-03-19T11:03:11.283Z,48.40
2019-03-19T11:07:28.063Z,50.50
2019-03-19T11:11:44.552Z,49.40
2019-03-19T11:16:01.643Z,48.60
2019-03-19T11:20:19.158Z,49.00
2019-03-19T11:24:36.063Z,49.80
2019-03-19T11:28:52.636Z,54.60
2019-03-19T11:33:09.336Z,59.00
2019-03-19T11:37:26.176Z,61.80
2019-03-19T11:41:42.664Z,63.10
2019-03-19T11:45:59.621Z,62.60
2019-03-19T11:50:25.622Z,58.80
2019-03-19T11:54:42.159Z,57.90
2019-03-19T11:58:58.682Z,50.70
2019-03-19T12:03:16.595Z,52.80
2019-03-19T12:07:33.523Z,56.20
2019-03-19T12:11:50.084Z,58.50
2019-03-19T12:16:06.583Z,59.50
2019-03-19T12:20:23.318Z,60.10
2019-03-19T12:24:39.824Z,57.60
2019-03-19T12:28:56.451Z,55.30
2019-03-19T12:33:12.993Z,54.60
2019-03-19T12:37:29.507Z,54.80
2019-03-19T12:41:48.371Z,52.10
2019-03-19T12:46:04.592Z,48.20
2019-03-19T12:50:25.258Z,43.30
2019-03-19T12:54:42.111Z,43.00
2019-03-19T12:58:58.604Z,40.90
2019-03-19T13:03:15.139Z,37.60
2019-03-19T13:07:31.656Z,35.20
2019-03-19T13:11:48.081Z,35.60
2019-03-19T13:16:04.572Z,39.40
2019-03-19T13:20:22.071Z,41.60
2019-03-19T13:24:38.575Z,43.80
2019-03-19T13:28:55.110Z,47.10
2019-03-19T13:33:11.916Z,48.40
2019-03-19T13:37:29.401Z,48.40
2019-03-19T13:41:45.966Z,48.80
2019-03-19T13:46:02.741Z,49.60
2019-03-19T13:50:20.971Z,51.70
2019-03-19T13:54:37.830Z,52.60
2019-03-19T13:58:54.341Z,52.80
2019-03-19T14:03:10.853Z,53.40
2019-03-19T14:07:27.648Z,52.70
2019-03-19T14:11:44.294Z,52.90
2019-03-19T14:16:00.812Z,53.50
2019-03-19T14:20:17.628Z,55.80
2019-03-19T14:24:34.525Z,57.40
2019-03-19T14:28:51.048Z,57.70
2019-03-19T14:33:07.603Z,57.20
2019-03-19T14:37:24.190Z,56.60
2019-03-19T14:41:40.949Z,57.00
2019-03-19T14:45:57.381Z,55.60
2019-03-19T14:50:20.252Z,54.50
2019-03-19T14:54:36.744Z,54.90
2019-03-19T14:58:53.256Z,53.40
2019-03-19T15:03:10.782Z,54.80
2019-03-19T15:07:27.224Z,54.10
2019-03-19T15:11:43.697Z,53.90
2019-03-19T15:16:00.226Z,51.50
2019-03-19T15:20:22.503Z,51.20
2019-03-19T15:24:39.291Z,51.20
2019-03-19T15:28:55.806Z,51.50
2019-03-19T15:33:12.329Z,51.70
2019-03-19T15:37:28.928Z,51.40
2019-03-19T15:41:45.477Z,51.40
2019-03-19T15:46:01.970Z,51.50
2019-03-19T15:50:18.774Z,52.20
2019-03-19T15:54:35.325Z,51.20
2019-03-19T15:58:51.848Z,50.60
2019-03-19T16:03:08.380Z,49.70
2019-03-19T16:07:24.865Z,51.10
2019-03-19T16:11:41.399Z,50.70
2019-03-19T16:15:58.103Z,51.60
2019-03-19T16:20:20.412Z,51.70
2019-03-19T16:24:37.229Z,51.70
2019-03-19T16:28:57.526Z,50.40
2019-03-19T16:33:14.411Z,50.10
2019-03-19T16:37:31.262Z,49.90
2019-03-19T16:41:47.977Z,50.60
2019-03-19T16:46:04.773Z,51.80
2019-03-19T16:50:22.633Z,52.50
2019-03-19T16:54:39.238Z,53.50
2019-03-19T16:58:55.774Z,54.10
2019-03-19T17:03:12.298Z,54.80
2019-03-19T17:07:30.018Z,55.40
2019-03-19T17:11:46.732Z,56.20
2019-03-19T17:16:03.396Z,56.60
2019-03-19T17:20:20.257Z,57.00
2019-03-19T17:24:37.130Z,57.50
2019-03-19T17:28:53.645Z,58.50
2019-03-19T17:33:12.623Z,58.10
2019-03-19T17:37:29.596Z,58.30
2019-03-19T17:41:46.760Z,58.40
2019-03-19T17:46:03.739Z,58.60
2019-03-19T17:50:32.304Z,58.30
2019-03-19T17:54:50.682Z,59.00
2019-03-19T17:59:09.408Z,59.80
2019-03-19T18:03:27.061Z,60.40
2019-03-19T18:07:46.557Z,61.00
2019-03-19T18:12:03.256Z,62.40
2019-03-19T18:16:19.780Z,64.90
2019-03-19T18:20:36.312Z,67.30
2019-03-19T18:24:52.984Z,69.30
2019-03-19T18:29:10.611Z,70.80
2019-03-19T18:33:27.306Z,72.90
2019-03-19T18:37:46.893Z,73.40
2019-03-19T18:42:03.909Z,74.60
2019-03-19T18:46:20.421Z,74.90
2019-03-19T18:50:37.065Z,75.80
2019-03-19T18:54:53.655Z,76.70
2019-03-19T18:59:11.962Z,77.80
2019-03-19T19:03:29.102Z,78.30
2019-03-19T19:07:46.653Z,79.60
2019-03-19T19:12:03.447Z,79.90
2019-03-19T19:16:23.260Z,80.40
2019-03-19T19:20:39.814Z,81.30
2019-03-19T19:24:56.329Z,81.80
2019-03-19T19:29:13.261Z,81.80
2019-03-19T19:33:35.196Z,82.00
2019-03-19T19:37:52.240Z,81.50
2019-03-19T19:42:10.750Z,81.70
2019-03-19T19:46:27.318Z,81.60
2019-03-19T19:50:45.285Z,81.10
2019-03-19T19:55:06.413Z,81.60
2019-03-19T19:59:23.336Z,82.00
2019-03-19T20:03:40.648Z,81.80
2019-03-19T20:07:58.399Z,82.00
2019-03-19T20:12:16.888Z,82.20
2019-03-19T20:16:34.331Z,81.50
2019-03-19T20:20:52.792Z,81.80
2019-03-19T20:25:10.181Z,81.50
2019-03-19T20:29:27.114Z,82.20
2019-03-19T20:33:43.626Z,82.10
2019-03-19T20:38:02.175Z,82.80
2019-03-19T20:42:18.831Z,83.30
2019-03-19T20:46:35.587Z,83.60
2019-03-19T20:50:52.454Z,83.70
2019-03-19T20:55:09.557Z,84.20
2019-03-19T20:59:26.145Z,84.40
2019-03-19T21:03:42.830Z,85.00
2019-03-19T21:07:59.333Z,85.30
2019-03-19T21:12:16.005Z,85.90
2019-03-19T21:16:32.554Z,86.10
2019-03-19T21:20:49.059Z,85.40
2019-03-19T21:25:05.987Z,85.70
2019-03-19T21:29:22.818Z,85.30
2019-03-19T21:33:50.464Z,85.40
2019-03-19T21:37:57.889Z,85.00
2019-03-19T21:42:14.535Z,85.00
2019-03-19T21:46:31.201Z,85.10
2019-03-19T21:50:47.955Z,85.60
2019-03-19T21:55:06.995Z,85.90
2019-03-19T21:59:23.599Z,86.40
2019-03-19T22:03:40.179Z,86.50
2019-03-19T22:07:56.680Z,86.20
2019-03-19T22:12:13.239Z,86.50
2019-03-19T22:16:30.085Z,86.40
2019-03-19T22:20:46.780Z,86.10
2019-03-19T22:25:07.011Z,85.70
2019-03-19T22:29:23.536Z,85.30
2019-03-19T22:33:40.471Z,85.30
2019-03-19T22:37:57.122Z,85.50
2019-03-19T22:42:13.886Z,86.00
2019-03-19T22:46:30.670Z,85.30
2019-03-19T22:50:47.569Z,85.50
2019-03-19T22:55:07.887Z,85.80
2019-03-19T22:59:24.365Z,86.20
2019-03-19T23:03:40.993Z,86.10
2019-03-19T23:07:57.780Z,85.80
2019-03-19T23:12:14.351Z,85.40
2019-03-19T23:16:30.828Z,85.00
2019-03-19T23:20:47.737Z,85.50
2019-03-19T23:25:05.860Z,86.00
2019-03-19T23:29:22.519Z,86.50
2019-03-19T23:33:39.055Z,87.10
2019-03-19T23:37:55.568Z,87.20
2019-03-19T23:42:12.188Z,87.80
2019-03-19T23:46:28.691Z,88.30
2019-03-19T23:50:45.599Z,88.30
2019-03-19T23:55:05.114Z,88.40
2019-03-19T23:59:21.624Z,88.50
